Time;durP1;ratioP1;P1;durP2;ratioP2;P2;SDS_P1;SDS_P2;PMS_P1;PMS_P2;Temp;Humidity;BMP_temperature;BMP_pressure;BME280_temperature;BME280_humidity;BME280_pressure;Samples;Min_cycle;Max_cycle;Signal;HPM_P1;HPM_P2
2022/10/16 00:04:51;;;;;;;0.93;0.93;;;;;;;16.64;64.94;100979.63;18238622;32;20106;-57
2022/10/16 00:14:54;;;;;;;1.40;1.00;;;;;;;16.64;64.83;100980.50;18243929;32;20094;-57
2022/10/16 00:24:58;;;;;;;0.40;0.40;;;;;;;16.58;65.13;100988.53;18245724;32;20097;-57
2022/10/16 00:35:03;;;;;;;0.40;0.40;;;;;;;16.51;64.92;100994.78;18245687;32;20119;-57
2022/10/16 00:45:10;;;;;;;0.40;0.40;;;;;;;16.41;65.26;100998.50;18245321;32;20102;-57
2022/10/16 00:55:13;;;;;;;0.90;0.90;;;;;;;16.40;65.47;100996.75;18273825;32;20108;-57
2022/10/16 01:05:18;;;;;;;0.50;0.50;;;;;;;16.36;65.61;101009.09;18308073;32;20117;-57
2022/10/16 01:15:26;;;;;;;0.57;0.57;;;;;;;16.26;66.07;101011.00;18307652;32;20146;-57
2022/10/16 01:25:41;;;;;;;0.40;0.40;;;;;;;16.20;66.15;101013.75;18307732;32;20123;-57
2022/10/16 01:35:49;;;;;;;0.40;0.40;;;;;;;16.19;65.93;101036.59;18307091;32;20090;-57
2022/10/16 01:45:53;;;;;;;0.30;0.30;;;;;;;16.06;65.69;101022.72;18306863;32;20125;-57
2022/10/16 01:55:59;;;;;;;1.25;0.50;;;;;;;15.95;65.52;101038.69;18306516;32;20381;-57
2022/10/16 02:06:02;;;;;;;0.52;0.52;;;;;;;15.64;65.92;101046.13;18306662;32;20125;-57
2022/10/16 02:16:07;;;;;;;0.30;0.30;;;;;;;15.50;65.59;101055.03;18306026;32;20112;-57
2022/10/16 02:26:14;;;;;;;0.68;0.68;;;;;;;15.30;65.04;101054.41;18306738;32;20450;-57
2022/10/16 02:36:19;;;;;;;0.50;0.50;;;;;;;15.04;65.13;101066.94;18305471;32;20111;-57
2022/10/16 02:46:22;;;;;;;0.50;0.50;;;;;;;14.79;65.74;101072.44;18305261;32;20476;-57
2022/10/16 02:56:27;;;;;;;0.30;0.30;;;;;;;14.57;66.27;101069.97;18304638;32;20101;-57
2022/10/16 03:06:30;;;;;;;0.40;0.40;;;;;;;14.60;66.37;101083.94;18304537;32;20098;-57
2022/10/16 03:16:34;;;;;;;0.30;0.30;;;;;;;14.57;67.05;101083.09;18304081;32;20094;-57
2022/10/16 03:26:37;;;;;;;0.57;0.57;;;;;;;14.55;66.49;101084.87;18303520;32;20097;-57
2022/10/16 03:36:42;;;;;;;0.32;0.32;;;;;;;14.43;66.23;101098.13;18304494;32;20098;-57
2022/10/16 03:46:46;;;;;;;0.40;0.40;;;;;;;14.30;66.14;101105.19;18303314;32;20122;-57
2022/10/16 03:56:50;;;;;;;0.30;0.30;;;;;;;14.12;65.35;101111.41;18302394;32;20438;-57
2022/10/16 04:06:53;;;;;;;0.47;0.47;;;;;;;13.71;66.05;101123.88;18301887;32;20102;-57
2022/10/16 04:16:57;;;;;;;0.82;0.82;;;;;;;13.53;65.82;101132.66;18300864;32;20112;-56
2022/10/16 04:27:01;;;;;;;0.43;0.35;;;;;;;13.34;65.60;101135.28;18300398;32;20120;-57
2022/10/16 04:37:06;;;;;;;0.30;0.30;;;;;;;13.07;65.54;101150.16;18299803;32;20149;-57
2022/10/16 04:47:09;;;;;;;0.52;0.52;;;;;;;12.72;66.32;101146.69;18299141;32;20090;-57
2022/10/16 04:57:14;;;;;;;0.85;0.85;;;;;;;12.60;66.22;101157.16;18301361;32;20148;-56
2022/10/16 05:07:17;;;;;;;0.30;0.30;;;;;;;12.52;65.58;101158.87;18308769;32;20089;-56
2022/10/16 05:17:21;;;;;;;0.30;0.30;;;;;;;12.38;66.20;101179.78;18307372;32;20085;-56
2022/10/16 05:27:25;;;;;;;0.20;0.20;;;;;;;12.29;65.96;101173.66;18308002;32;20405;-57
2022/10/16 05:37:30;;;;;;;0.20;0.20;;;;;;;12.15;66.25;101183.22;18307341;32;20090;-57
2022/10/16 05:47:33;;;;;;;0.60;0.60;;;;;;;12.02;66.70;101200.56;18301632;32;20121;-57
2022/10/16 05:57:38;;;;;;;0.40;0.40;;;;;;;12.23;66.87;101212.87;18250008;32;20094;-57
2022/10/16 06:07:41;;;;;;;0.62;0.62;;;;;;;12.39;66.90;101215.56;18295016;32;20089;-56
2022/10/16 06:17:46;;;;;;;0.37;0.37;;;;;;;12.76;66.90;101227.03;18306368;32;20138;-56
2022/10/16 06:27:49;;;;;;;0.50;0.50;;;;;;;13.30;66.87;101222.72;18305993;32;20139;-56
2022/10/16 06:37:55;;;;;;;0.30;0.25;;;;;;;13.86;69.37;101230.53;18304939;32;20347;-57
2022/10/16 06:47:58;;;;;;;0.28;0.28;;;;;;;15.05;64.16;101260.63;18305839;32;20086;-57
2022/10/16 06:58:02;;;;;;;0.10;0.10;;;;;;;16.62;58.66;101271.37;18305714;32;20097;-57
2022/10/16 07:08:05;;;;;;;0.20;0.20;;;;;;;19.03;51.99;101263.50;18304348;32;20093;-57
2022/10/16 07:18:10;;;;;;;0.20;0.20;;;;;;;20.49;46.29;101278.22;18303511;32;20108;-57
2022/10/16 07:28:13;;;;;;;0.32;0.30;;;;;;;20.09;46.53;101304.94;18304671;32;20089;-57
2022/10/16 07:38:18;;;;;;;0.28;0.28;;;;;;;20.15;46.57;101308.34;18303039;32;20105;-57
2022/10/16 07:48:22;;;;;;;0.10;0.10;;;;;;;19.84;45.48;101323.28;18302540;32;20116;-57
2022/10/16 07:58:27;;;;;;;0.35;0.35;;;;;;;18.73;46.68;101332.91;18301232;32;20101;-57
2022/10/16 08:08:30;;;;;;;0.10;0.10;;;;;;;18.68;47.74;101318.94;18301692;32;20093;-57
2022/10/16 08:18:35;;;;;;;0.30;0.30;;;;;;;19.04;46.16;101334.03;18301548;32;20655;-57
2022/10/16 08:28:38;;;;;;;0.20;0.20;;;;;;;18.95;46.00;101345.69;18283260;32;20113;-57
2022/10/16 08:38:43;;;;;;;0.17;0.17;;;;;;;19.16;47.11;101354.06;18268907;32;20105;-57
2022/10/16 08:48:49;;;;;;;0.10;0.10;;;;;;;19.20;45.86;101359.25;18303147;32;20093;-57
2022/10/16 08:58:54;;;;;;;0.20;0.20;;;;;;;19.64;44.71;101366.19;18308300;32;20124;-57
2022/10/16 09:09:14;;;;;;;0.10;0.10;;;;;;;19.53;44.88;101375.22;18308023;32;20451;-57
2022/10/16 09:19:25;;;;;;;0.20;0.20;;;;;;;20.33;43.41;101359.97;18295700;32;20093;-57
2022/10/16 09:29:28;;;;;;;0.20;0.20;;;;;;;20.38;43.76;101344.81;18270104;32;20320;-57
2022/10/16 09:39:45;;;;;;;0.40;0.40;;;;;;;20.16;43.35;101353.38;18303193;32;20090;-58
2022/10/16 09:49:56;;;;;;;0.20;0.20;;;;;;;20.40;44.20;101360.72;18304130;32;20108;-57
2022/10/16 10:00:10;;;;;;;0.60;0.43;;;;;;;20.33;42.87;101376.78;18291364;32;20112;-57
2022/10/16 10:10:21;;;;;;;0.22;0.22;;;;;;;20.88;43.07;101373.47;18303550;32;20445;-57
2022/10/16 10:20:28;;;;;;;0.40;0.40;;;;;;;20.57;44.23;101368.16;18305537;32;20127;-57
2022/10/16 10:30:37;;;;;;;0.20;0.20;;;;;;;19.54;45.11;101362.87;18304993;32;20109;-57
2022/10/16 10:40:49;;;;;;;0.10;0.10;;;;;;;21.12;43.40;101351.53;18305073;32;20354;-57
2022/10/16 10:50:55;;;;;;;0.10;0.10;;;;;;;21.09;41.91;101352.50;18303299;32;20089;-58
2022/10/16 11:01:02;;;;;;;0.10;0.10;;;;;;;21.65;40.79;101353.38;18302205;32;20108;-58
2022/10/16 11:11:10;;;;;;;0.10;0.10;;;;;;;22.22;39.80;101344.34;18302752;32;20133;-57
2022/10/16 11:21:17;;;;;;;0.90;0.65;;;;;;;22.00;39.71;101331.84;18300056;32;30297;-57
2022/10/16 11:31:25;;;;;;;0.10;0.10;;;;;;;22.29;40.30;101325.47;18301433;32;20093;-57
2022/10/16 11:41:34;;;;;;;0.10;0.10;;;;;;;22.63;38.82;101317.16;18303013;32;20111;-58
2022/10/16 11:51:39;;;;;;;0.10;0.10;;;;;;;22.56;39.27;101301.44;18302583;32;20086;-57
2022/10/16 12:01:47;;;;;;;0.10;0.10;;;;;;;22.52;38.68;101306.94;18281518;32;20101;-58
2022/10/16 12:11:50;;;;;;;0.10;0.10;;;;;;;22.43;40.25;101302.81;18306701;32;20107;-57
2022/10/16 12:21:57;;;;;;;0.73;0.20;;;;;;;22.48;39.85;101306.16;18306732;32;20109;-58
2022/10/16 12:32:00;;;;;;;0.20;0.20;;;;;;;22.16;40.08;101302.91;18305382;32;20164;-58
2022/10/16 12:42:07;;;;;;;0.10;0.10;;;;;;;22.62;38.73;101295.00;18306659;32;20102;-58
2022/10/16 12:52:26;;;;;;;0.10;0.10;;;;;;;22.87;37.94;101302.91;18306952;32;20111;-58
2022/10/16 13:02:50;;;;;;;0.15;0.15;;;;;;;22.76;39.39;101307.78;18308035;32;20158;-58
2022/10/16 13:13:08;;;;;;;0.05;0.05;;;;;;;23.01;38.10;101306.81;18307470;32;20094;-58
2022/10/16 13:23:17;;;;;;;0.10;0.10;;;;;;;22.75;37.99;101318.50;18306271;32;20097;-58
2022/10/16 13:33:31;;;;;;;0.45;0.10;;;;;;;22.47;38.27;101311.53;18307318;32;20112;-58
2022/10/16 13:43:37;;;;;;;0.00;0.00;;;;;;;22.75;38.06;101310.50;18305276;32;20137;-57
2022/10/16 13:53:40;;;;;;;0.10;0.10;;;;;;;23.01;37.50;101304.16;18305878;32;20106;-57
2022/10/16 14:03:45;;;;;;;0.00;0.00;;;;;;;23.42;37.57;101312.25;18304865;32;20108;-58
2022/10/16 14:13:49;;;;;;;0.10;0.10;;;;;;;23.36;37.77;101319.62;18304661;32;20380;-57
2022/10/16 14:23:53;;;;;;;0.10;0.10;;;;;;;23.27;37.73;101315.53;18307123;32;20159;-57
2022/10/16 14:33:59;;;;;;;0.10;0.10;;;;;;;22.97;37.76;101318.53;18303508;32;20199;-58
2022/10/16 14:44:05;;;;;;;0.10;0.00;;;;;;;22.81;38.06;101321.78;18303483;32;20129;-58
2022/10/16 14:54:09;;;;;;;0.75;0.30;;;;;;;22.83;38.60;101317.25;18305012;32;20085;-57
2022/10/16 15:04:15;;;;;;;0.00;0.00;;;;;;;22.25;39.60;101326.50;18304959;32;20114;-57
2022/10/16 15:14:18;;;;;;;0.10;0.10;;;;;;;22.22;40.40;101326.62;18304600;32;20089;-57
2022/10/16 15:24:23;;;;;;;0.10;0.10;;;;;;;21.98;40.68;101329.22;18304790;32;20093;-57
2022/10/16 15:34:26;;;;;;;0.10;0.10;;;;;;;21.83;41.61;101345.72;18302122;32;20097;-58
2022/10/16 15:44:30;;;;;;;0.35;0.15;;;;;;;21.40;44.52;101340.03;18301702;32;20469;-57
2022/10/16 15:54:33;;;;;;;0.10;0.10;;;;;;;20.70;46.49;101355.44;18303452;32;20137;-57
2022/10/16 16:04:37;;;;;;;0.13;0.13;;;;;;;20.28;47.74;101388.41;18291934;32;20119;-57
2022/10/16 16:14:48;;;;;;;0.10;0.10;;;;;;;19.69;50.49;101385.47;18295795;32;20381;-57
2022/10/16 16:24:53;;;;;;;0.20;0.20;;;;;;;19.31;51.67;101411.06;18243216;32;20133;-57
2022/10/16 16:34:56;;;;;;;0.30;0.30;;;;;;;18.87;53.52;101417.25;18300614;32;20120;-57
2022/10/16 16:45:00;;;;;;;1.20;1.12;;;;;;;18.34;55.59;101439.44;18299659;32;20105;-57
2022/10/16 16:55:04;;;;;;;0.60;0.60;;;;;;;18.09;55.95;101447.78;18303182;32;20382;-57
2022/10/16 17:05:10;;;;;;;0.35;0.35;;;;;;;17.73;56.78;101458.00;18305604;32;20116;-57
2022/10/16 17:15:13;;;;;;;0.40;0.40;;;;;;;17.33;58.09;101468.25;18305399;32;20103;-57
2022/10/16 17:25:17;;;;;;;0.50;0.50;;;;;;;17.03;58.39;101478.31;18304550;32;20100;-57
2022/10/16 17:35:21;;;;;;;0.35;0.35;;;;;;;16.74;58.93;101507.59;18303963;32;20098;-57
2022/10/16 17:45:25;;;;;;;0.30;0.30;;;;;;;16.42;59.96;101525.50;18305847;32;20102;-57
2022/10/16 17:55:29;;;;;;;1.23;1.12;;;;;;;16.14;60.78;101546.78;18306171;32;20417;-57
2022/10/16 18:05:37;;;;;;;0.37;0.37;;;;;;;15.98;61.44;101545.97;18274893;32;20109;-57
2022/10/16 18:15:41;;;;;;;2.55;1.58;;;;;;;15.66;61.98;101545.28;18305404;32;20137;-57
2022/10/16 18:25:51;;;;;;;1.12;0.75;;;;;;;15.54;61.92;101547.94;18305641;32;20173;-57
2022/10/16 18:35:54;;;;;;;0.40;0.40;;;;;;;15.29;62.44;101561.22;18304445;32;20437;-57
2022/10/16 18:45:59;;;;;;;0.65;0.62;;;;;;;15.17;62.49;101577.03;18301456;32;20108;-57
2022/10/16 18:56:03;;;;;;;0.40;0.40;;;;;;;14.93;63.06;101573.56;18303564;32;20143;-57
2022/10/16 19:06:09;;;;;;;0.30;0.30;;;;;;;14.59;63.99;101573.56;18301450;32;20355;-58
2022/10/16 19:16:17;;;;;;;0.30;0.30;;;;;;;14.47;63.94;101582.34;18300059;32;20116;-58
2022/10/16 19:26:25;;;;;;;0.20;0.20;;;;;;;14.28;64.61;101584.94;18302151;32;20158;-57
2022/10/16 19:36:30;;;;;;;0.93;0.82;;;;;;;14.13;64.96;101597.16;18298507;32;20101;-58
2022/10/16 19:46:35;;;;;;;0.40;0.40;;;;;;;13.99;65.30;101617.25;18297745;32;20114;-57
2022/10/16 19:56:38;;;;;;;1.62;0.98;;;;;;;13.98;64.65;101628.62;18299572;32;20105;-56
2022/10/16 20:06:43;;;;;;;0.50;0.50;;;;;;;13.84;64.85;101645.22;18297713;32;20116;-57
2022/10/16 20:16:46;;;;;;;0.50;0.50;;;;;;;13.71;64.78;101669.66;18298842;32;20454;-57
2022/10/16 20:26:51;;;;;;;0.40;0.40;;;;;;;13.64;64.46;101679.22;18298814;32;20122;-58
2022/10/16 20:36:54;;;;;;;0.43;0.43;;;;;;;13.54;64.55;101687.91;18306191;32;20089;-57
2022/10/16 20:46:58;;;;;;;1.12;0.90;;;;;;;13.39;65.42;101705.28;18306126;32;20438;-57
2022/10/16 20:57:01;;;;;;;0.50;0.50;;;;;;;13.51;64.91;101714.13;18305422;32;20097;-57
2022/10/16 21:07:06;;;;;;;3.40;2.10;;;;;;;13.34;64.83;101721.84;18292518;32;20108;-57
2022/10/16 21:17:09;;;;;;;0.70;0.70;;;;;;;13.07;65.32;101719.00;18302141;32;20121;-57
2022/10/16 21:27:13;;;;;;;0.65;0.57;;;;;;;13.02;65.23;101729.44;18300243;32;20112;-57
2022/10/16 21:37:17;;;;;;;0.40;0.40;;;;;;;12.88;65.68;101725.84;18302409;32;20147;-57
2022/10/16 21:47:21;;;;;;;0.47;0.47;;;;;;;12.78;65.43;101724.84;18304131;32;20105;-57
2022/10/16 21:57:25;;;;;;;1.23;1.12;;;;;;;12.69;65.33;101743.09;18304376;32;20112;-57
2022/10/16 22:07:29;;;;;;;0.50;0.50;;;;;;;12.73;65.16;101734.41;18307635;32;20128;-57
2022/10/16 22:17:33;;;;;;;0.40;0.40;;;;;;;12.55;65.35;101756.94;18306380;32;20661;-57
2022/10/16 22:27:37;;;;;;;1.42;1.10;;;;;;;12.47;65.29;101769.06;18268143;32;20152;-57
2022/10/16 22:37:41;;;;;;;2.10;1.80;;;;;;;12.49;65.32;101775.19;18259283;32;20141;-56
2022/10/16 22:47:45;;;;;;;1.35;0.77;;;;;;;12.29;65.41;101781.06;18304992;32;20112;-57
2022/10/16 22:57:49;;;;;;;1.10;1.05;;;;;;;12.23;65.70;101774.88;18296583;32;20430;-57
2022/10/16 23:07:53;;;;;;;0.65;0.60;;;;;;;11.89;66.94;101785.72;18278372;32;20442;-56
2022/10/16 23:17:57;;;;;;;0.50;0.50;;;;;;;11.86;66.49;101797.03;18258921;32;20173;-56
2022/10/16 23:28:01;;;;;;;0.60;0.60;;;;;;;11.72;66.86;101803.78;18240878;32;20129;-56
2022/10/16 23:38:05;;;;;;;0.35;0.35;;;;;;;11.85;66.01;101804.84;18240317;32;20450;-57
2022/10/16 23:48:10;;;;;;;4.70;2.05;;;;;;;11.70;66.22;101814.22;18240001;32;20148;-57
2022/10/16 23:58:13;;;;;;;1.55;1.45;;;;;;;11.62;66.20;101816.72;18240493;32;20093;-56
